sensor_id;sensor_type;location;lat;lon;timestamp;temperature;humidity
14727;DHT22;7454;51.256;8.176;2024-02-15T00:02:15;11.90;90.10
14727;DHT22;7454;51.256;8.176;2024-02-15T00:04:41;11.90;90.10
14727;DHT22;7454;51.256;8.176;2024-02-15T00:07:08;11.90;90.10
14727;DHT22;7454;51.256;8.176;2024-02-15T00:09:33;11.90;90.10
14727;DHT22;7454;51.256;8.176;2024-02-15T00:11:59;12.00;90.10
14727;DHT22;7454;51.256;8.176;2024-02-15T00:14:25;11.90;90.10
14727;DHT22;7454;51.256;8.176;2024-02-15T00:16:53;12.00;90.10
14727;DHT22;7454;51.256;8.176;2024-02-15T00:19:18;11.90;90.10
14727;DHT22;7454;51.256;8.176;2024-02-15T00:21:44;12.00;90.10
14727;DHT22;7454;51.256;8.176;2024-02-15T00:24:10;12.00;90.10
14727;DHT22;7454;51.256;8.176;2024-02-15T00:26:36;12.00;90.10
14727;DHT22;7454;51.256;8.176;2024-02-15T00:29:03;12.00;90.10
14727;DHT22;7454;51.256;8.176;2024-02-15T00:31:28;12.00;90.10
14727;DHT22;7454;51.256;8.176;2024-02-15T00:33:54;12.00;90.10
14727;DHT22;7454;51.256;8.176;2024-02-15T00:36:20;12.00;90.10
14727;DHT22;7454;51.256;8.176;2024-02-15T00:38:46;12.00;90.10
14727;DHT22;7454;51.256;8.176;2024-02-15T00:41:12;12.00;90.10
14727;DHT22;7454;51.256;8.176;2024-02-15T00:43:38;12.00;90.10
14727;DHT22;7454;51.256;8.176;2024-02-15T00:46:03;12.00;90.10
14727;DHT22;7454;51.256;8.176;2024-02-15T00:48:29;12.10;90.20
14727;DHT22;7454;51.256;8.176;2024-02-15T00:50:55;12.00;90.20
14727;DHT22;7454;51.256;8.176;2024-02-15T00:53:21;12.00;90.20
14727;DHT22;7454;51.256;8.176;2024-02-15T00:55:47;12.00;90.20
14727;DHT22;7454;51.256;8.176;2024-02-15T00:58:13;12.00;90.10
14727;DHT22;7454;51.256;8.176;2024-02-15T01:00:38;12.00;90.20
14727;DHT22;7454;51.256;8.176;2024-02-15T01:03:04;12.00;90.20
14727;DHT22;7454;51.256;8.176;2024-02-15T01:05:30;12.00;90.20
14727;DHT22;7454;51.256;8.176;2024-02-15T01:07:56;12.10;90.20
14727;DHT22;7454;51.256;8.176;2024-02-15T01:10:22;12.10;90.20
14727;DHT22;7454;51.256;8.176;2024-02-15T01:12:50;12.10;90.20
14727;DHT22;7454;51.256;8.176;2024-02-15T01:15:15;12.10;90.20
14727;DHT22;7454;51.256;8.176;2024-02-15T01:17:45;12.10;90.20
14727;DHT22;7454;51.256;8.176;2024-02-15T01:20:11;12.10;90.10
14727;DHT22;7454;51.256;8.176;2024-02-15T01:22:37;12.10;90.20
14727;DHT22;7454;51.256;8.176;2024-02-15T01:25:03;12.10;90.20
14727;DHT22;7454;51.256;8.176;2024-02-15T01:27:29;12.30;90.20
14727;DHT22;7454;51.256;8.176;2024-02-15T01:29:58;12.10;90.10
14727;DHT22;7454;51.256;8.176;2024-02-15T01:32:23;12.10;90.10
14727;DHT22;7454;51.256;8.176;2024-02-15T01:34:50;12.10;90.20
14727;DHT22;7454;51.256;8.176;2024-02-15T01:37:19;12.10;90.10
14727;DHT22;7454;51.256;8.176;2024-02-15T01:39:48;12.10;90.10
14727;DHT22;7454;51.256;8.176;2024-02-15T01:42:15;12.10;90.10
14727;DHT22;7454;51.256;8.176;2024-02-15T01:44:40;12.10;90.10
14727;DHT22;7454;51.256;8.176;2024-02-15T01:47:09;12.10;90.10
14727;DHT22;7454;51.256;8.176;2024-02-15T01:49:36;12.10;90.10
14727;DHT22;7454;51.256;8.176;2024-02-15T01:52:02;12.10;90.20
14727;DHT22;7454;51.256;8.176;2024-02-15T01:54:30;12.20;90.20
14727;DHT22;7454;51.256;8.176;2024-02-15T01:56:57;12.10;90.20
14727;DHT22;7454;51.256;8.176;2024-02-15T01:59:23;12.20;90.20
14727;DHT22;7454;51.256;8.176;2024-02-15T02:01:49;12.20;90.20
14727;DHT22;7454;51.256;8.176;2024-02-15T02:04:15;12.10;90.20
14727;DHT22;7454;51.256;8.176;2024-02-15T02:06:40;12.20;90.20
14727;DHT22;7454;51.256;8.176;2024-02-15T02:09:12;12.20;90.20
14727;DHT22;7454;51.256;8.176;2024-02-15T02:11:38;12.20;90.20
14727;DHT22;7454;51.256;8.176;2024-02-15T02:14:04;12.20;90.20
14727;DHT22;7454;51.256;8.176;2024-02-15T02:16:30;12.20;90.20
14727;DHT22;7454;51.256;8.176;2024-02-15T02:19:01;12.20;90.20
14727;DHT22;7454;51.256;8.176;2024-02-15T02:21:27;12.20;90.20
14727;DHT22;7454;51.256;8.176;2024-02-15T02:23:56;12.20;90.20
14727;DHT22;7454;51.256;8.176;2024-02-15T02:26:22;12.20;90.20
14727;DHT22;7454;51.256;8.176;2024-02-15T02:28:49;12.20;90.20
14727;DHT22;7454;51.256;8.176;2024-02-15T02:31:15;12.20;90.20
14727;DHT22;7454;51.256;8.176;2024-02-15T02:33:41;12.20;90.20
14727;DHT22;7454;51.256;8.176;2024-02-15T02:36:07;12.20;90.20
14727;DHT22;7454;51.256;8.176;2024-02-15T02:38:35;12.20;90.20
14727;DHT22;7454;51.256;8.176;2024-02-15T02:41:03;12.20;90.10
14727;DHT22;7454;51.256;8.176;2024-02-15T02:43:29;12.20;90.20
14727;DHT22;7454;51.256;8.176;2024-02-15T02:45:55;12.20;90.20
14727;DHT22;7454;51.256;8.176;2024-02-15T02:48:21;12.20;90.10
14727;DHT22;7454;51.256;8.176;2024-02-15T02:50:49;12.20;90.10
14727;DHT22;7454;51.256;8.176;2024-02-15T02:53:15;12.20;90.00
14727;DHT22;7454;51.256;8.176;2024-02-15T02:55:41;12.20;90.00
14727;DHT22;7454;51.256;8.176;2024-02-15T02:58:08;12.20;90.10
14727;DHT22;7454;51.256;8.176;2024-02-15T03:00:33;12.20;90.10
14727;DHT22;7454;51.256;8.176;2024-02-15T03:02:59;12.20;90.00
14727;DHT22;7454;51.256;8.176;2024-02-15T03:05:25;12.20;90.00
14727;DHT22;7454;51.256;8.176;2024-02-15T03:07:51;12.20;90.00
14727;DHT22;7454;51.256;8.176;2024-02-15T03:10:17;12.20;90.00
14727;DHT22;7454;51.256;8.176;2024-02-15T03:12:44;12.20;90.00
14727;DHT22;7454;51.256;8.176;2024-02-15T03:15:13;12.20;90.00
14727;DHT22;7454;51.256;8.176;2024-02-15T03:17:39;12.20;90.00
14727;DHT22;7454;51.256;8.176;2024-02-15T03:20:09;12.20;90.00
14727;DHT22;7454;51.256;8.176;2024-02-15T03:22:53;12.20;90.00
14727;DHT22;7454;51.256;8.176;2024-02-15T03:25:19;12.20;90.10
14727;DHT22;7454;51.256;8.176;2024-02-15T03:27:44;12.20;90.10
14727;DHT22;7454;51.256;8.176;2024-02-15T03:30:11;12.20;90.10
14727;DHT22;7454;51.256;8.176;2024-02-15T03:32:37;12.30;90.10
14727;DHT22;7454;51.256;8.176;2024-02-15T03:35:03;12.20;90.00
14727;DHT22;7454;51.256;8.176;2024-02-15T03:37:29;12.20;90.00
14727;DHT22;7454;51.256;8.176;2024-02-15T03:39:54;12.20;90.00
14727;DHT22;7454;51.256;8.176;2024-02-15T03:42:20;12.20;90.00
14727;DHT22;7454;51.256;8.176;2024-02-15T03:44:46;12.20;90.00
14727;DHT22;7454;51.256;8.176;2024-02-15T03:47:13;12.20;90.00
14727;DHT22;7454;51.256;8.176;2024-02-15T03:49:40;12.20;90.00
14727;DHT22;7454;51.256;8.176;2024-02-15T03:52:07;12.20;90.00
14727;DHT22;7454;51.256;8.176;2024-02-15T03:54:36;12.30;90.10
14727;DHT22;7454;51.256;8.176;2024-02-15T03:57:02;12.20;90.00
14727;DHT22;7454;51.256;8.176;2024-02-15T03:59:27;12.30;90.00
14727;DHT22;7454;51.256;8.176;2024-02-15T04:01:53;12.20;90.00
14727;DHT22;7454;51.256;8.176;2024-02-15T04:04:19;12.20;89.90
14727;DHT22;7454;51.256;8.176;2024-02-15T04:06:51;12.20;89.90
14727;DHT22;7454;51.256;8.176;2024-02-15T04:09:17;12.30;89.70
14727;DHT22;7454;51.256;8.176;2024-02-15T04:11:44;12.20;89.80
14727;DHT22;7454;51.256;8.176;2024-02-15T04:14:12;12.20;89.60
14727;DHT22;7454;51.256;8.176;2024-02-15T04:16:38;12.20;89.80
14727;DHT22;7454;51.256;8.176;2024-02-15T04:19:04;12.30;89.80
14727;DHT22;7454;51.256;8.176;2024-02-15T04:21:30;12.30;89.70
14727;DHT22;7454;51.256;8.176;2024-02-15T04:23:56;12.30;89.50
14727;DHT22;7454;51.256;8.176;2024-02-15T04:26:22;12.30;89.70
14727;DHT22;7454;51.256;8.176;2024-02-15T04:28:52;12.30;89.80
14727;DHT22;7454;51.256;8.176;2024-02-15T04:31:18;12.30;89.60
14727;DHT22;7454;51.256;8.176;2024-02-15T04:33:45;12.30;89.50
14727;DHT22;7454;51.256;8.176;2024-02-15T04:36:14;12.20;89.50
14727;DHT22;7454;51.256;8.176;2024-02-15T04:38:43;12.30;89.70
14727;DHT22;7454;51.256;8.176;2024-02-15T04:41:09;12.30;89.60
14727;DHT22;7454;51.256;8.176;2024-02-15T04:43:35;12.30;89.40
14727;DHT22;7454;51.256;8.176;2024-02-15T04:46:03;12.30;89.50
14727;DHT22;7454;51.256;8.176;2024-02-15T04:48:32;12.20;89.70
14727;DHT22;7454;51.256;8.176;2024-02-15T04:50:59;12.30;89.70
14727;DHT22;7454;51.256;8.176;2024-02-15T04:53:26;12.30;89.60
14727;DHT22;7454;51.256;8.176;2024-02-15T04:55:55;12.30;89.50
14727;DHT22;7454;51.256;8.176;2024-02-15T04:58:20;12.30;89.40
14727;DHT22;7454;51.256;8.176;2024-02-15T05:00:46;12.30;89.50
14727;DHT22;7454;51.256;8.176;2024-02-15T05:03:14;12.30;89.20
14727;DHT22;7454;51.256;8.176;2024-02-15T05:05:39;12.30;89.20
14727;DHT22;7454;51.256;8.176;2024-02-15T05:08:05;12.30;89.30
14727;DHT22;7454;51.256;8.176;2024-02-15T05:10:31;12.30;89.20
14727;DHT22;7454;51.256;8.176;2024-02-15T05:12:56;12.20;89.10
14727;DHT22;7454;51.256;8.176;2024-02-15T05:15:22;12.20;89.30
14727;DHT22;7454;51.256;8.176;2024-02-15T05:17:50;12.20;89.20
14727;DHT22;7454;51.256;8.176;2024-02-15T05:20:16;12.30;89.10
14727;DHT22;7454;51.256;8.176;2024-02-15T05:22:41;12.30;89.20
14727;DHT22;7454;51.256;8.176;2024-02-15T05:25:11;12.30;89.10
14727;DHT22;7454;51.256;8.176;2024-02-15T05:27:37;12.30;88.80
14727;DHT22;7454;51.256;8.176;2024-02-15T05:30:03;12.30;88.50
14727;DHT22;7454;51.256;8.176;2024-02-15T05:32:33;12.30;88.30
14727;DHT22;7454;51.256;8.176;2024-02-15T05:35:08;12.30;88.70
14727;DHT22;7454;51.256;8.176;2024-02-15T05:37:37;12.20;88.30
14727;DHT22;7454;51.256;8.176;2024-02-15T05:40:03;12.20;88.30
14727;DHT22;7454;51.256;8.176;2024-02-15T05:42:30;12.30;88.40
14727;DHT22;7454;51.256;8.176;2024-02-15T05:44:59;12.20;88.70
14727;DHT22;7454;51.256;8.176;2024-02-15T05:47:36;12.30;88.30
14727;DHT22;7454;51.256;8.176;2024-02-15T05:50:02;12.30;88.50
14727;DHT22;7454;51.256;8.176;2024-02-15T05:52:32;12.30;88.40
14727;DHT22;7454;51.256;8.176;2024-02-15T05:54:58;12.30;88.30
14727;DHT22;7454;51.256;8.176;2024-02-15T05:57:23;12.20;88.20
14727;DHT22;7454;51.256;8.176;2024-02-15T05:59:49;12.30;88.30
14727;DHT22;7454;51.256;8.176;2024-02-15T06:02:15;12.20;88.30
14727;DHT22;7454;51.256;8.176;2024-02-15T06:04:41;12.20;88.50
14727;DHT22;7454;51.256;8.176;2024-02-15T06:07:06;12.30;88.20
14727;DHT22;7454;51.256;8.176;2024-02-15T06:09:35;12.20;88.10
14727;DHT22;7454;51.256;8.176;2024-02-15T06:12:02;12.30;88.50
14727;DHT22;7454;51.256;8.176;2024-02-15T06:14:28;12.30;88.50
14727;DHT22;7454;51.256;8.176;2024-02-15T06:16:54;12.20;88.30
14727;DHT22;7454;51.256;8.176;2024-02-15T06:19:20;12.20;88.30
14727;DHT22;7454;51.256;8.176;2024-02-15T06:21:47;12.20;88.10
14727;DHT22;7454;51.256;8.176;2024-02-15T06:24:13;12.20;88.20
14727;DHT22;7454;51.256;8.176;2024-02-15T06:26:39;12.20;88.30
14727;DHT22;7454;51.256;8.176;2024-02-15T06:29:05;12.20;88.30
14727;DHT22;7454;51.256;8.176;2024-02-15T06:31:49;12.20;88.40
14727;DHT22;7454;51.256;8.176;2024-02-15T06:34:33;12.20;88.60
14727;DHT22;7454;51.256;8.176;2024-02-15T06:37:36;12.20;88.50
14727;DHT22;7454;51.256;8.176;2024-02-15T06:40:21;12.20;88.40
14727;DHT22;7454;51.256;8.176;2024-02-15T06:42:47;12.20;88.40
14727;DHT22;7454;51.256;8.176;2024-02-15T06:45:12;12.20;88.50
14727;DHT22;7454;51.256;8.176;2024-02-15T06:47:41;12.20;88.40
14727;DHT22;7454;51.256;8.176;2024-02-15T06:50:12;12.20;88.10
14727;DHT22;7454;51.256;8.176;2024-02-15T06:52:42;12.20;88.20
14727;DHT22;7454;51.256;8.176;2024-02-15T06:55:08;12.20;88.10
14727;DHT22;7454;51.256;8.176;2024-02-15T06:57:34;12.20;88.10
14727;DHT22;7454;51.256;8.176;2024-02-15T07:00:05;12.20;87.90
14727;DHT22;7454;51.256;8.176;2024-02-15T07:02:36;12.20;87.90
14727;DHT22;7454;51.256;8.176;2024-02-15T07:05:01;12.20;87.80
14727;DHT22;7454;51.256;8.176;2024-02-15T07:07:31;12.20;87.90
14727;DHT22;7454;51.256;8.176;2024-02-15T07:09:57;12.20;87.90
14727;DHT22;7454;51.256;8.176;2024-02-15T07:12:23;12.10;87.80
14727;DHT22;7454;51.256;8.176;2024-02-15T07:14:49;12.20;87.80
14727;DHT22;7454;51.256;8.176;2024-02-15T07:17:14;12.10;87.60
14727;DHT22;7454;51.256;8.176;2024-02-15T07:19:42;12.10;87.80
14727;DHT22;7454;51.256;8.176;2024-02-15T07:22:09;12.10;87.90
14727;DHT22;7454;51.256;8.176;2024-02-15T07:24:35;12.10;87.90
14727;DHT22;7454;51.256;8.176;2024-02-15T07:27:04;12.10;87.90
14727;DHT22;7454;51.256;8.176;2024-02-15T07:29:30;12.10;88.10
14727;DHT22;7454;51.256;8.176;2024-02-15T07:32:02;12.10;87.90
14727;DHT22;7454;51.256;8.176;2024-02-15T07:34:30;12.20;88.20
14727;DHT22;7454;51.256;8.176;2024-02-15T07:36:56;12.20;88.10
14727;DHT22;7454;51.256;8.176;2024-02-15T07:39:23;12.20;87.90
14727;DHT22;7454;51.256;8.176;2024-02-15T07:41:50;12.20;87.80
14727;DHT22;7454;51.256;8.176;2024-02-15T07:44:20;12.20;88.10
14727;DHT22;7454;51.256;8.176;2024-02-15T07:46:47;12.20;88.30
14727;DHT22;7454;51.256;8.176;2024-02-15T07:49:13;12.20;88.20
14727;DHT22;7454;51.256;8.176;2024-02-15T07:51:38;12.20;87.90
14727;DHT22;7454;51.256;8.176;2024-02-15T07:54:05;12.20;88.20
14727;DHT22;7454;51.256;8.176;2024-02-15T07:56:31;12.20;88.30
14727;DHT22;7454;51.256;8.176;2024-02-15T07:58:57;12.30;88.60
14727;DHT22;7454;51.256;8.176;2024-02-15T08:01:23;12.30;88.40
14727;DHT22;7454;51.256;8.176;2024-02-15T08:03:48;12.30;88.50
14727;DHT22;7454;51.256;8.176;2024-02-15T08:06:16;12.30;88.40
14727;DHT22;7454;51.256;8.176;2024-02-15T08:08:42;12.30;88.70
14727;DHT22;7454;51.256;8.176;2024-02-15T08:11:11;12.30;88.50
14727;DHT22;7454;51.256;8.176;2024-02-15T08:13:43;12.30;88.40
14727;DHT22;7454;51.256;8.176;2024-02-15T08:16:18;12.30;88.30
14727;DHT22;7454;51.256;8.176;2024-02-15T08:18:44;12.30;88.70
14727;DHT22;7454;51.256;8.176;2024-02-15T08:21:11;12.30;88.60
14727;DHT22;7454;51.256;8.176;2024-02-15T08:23:37;12.40;88.60
14727;DHT22;7454;51.256;8.176;2024-02-15T08:26:03;12.30;88.30
14727;DHT22;7454;51.256;8.176;2024-02-15T08:28:30;12.40;88.40
14727;DHT22;7454;51.256;8.176;2024-02-15T08:30:56;12.40;88.40
14727;DHT22;7454;51.256;8.176;2024-02-15T08:33:24;12.40;88.40
14727;DHT22;7454;51.256;8.176;2024-02-15T08:35:54;12.40;88.40
14727;DHT22;7454;51.256;8.176;2024-02-15T08:38:21;12.40;88.60
14727;DHT22;7454;51.256;8.176;2024-02-15T08:40:47;12.40;88.40
14727;DHT22;7454;51.256;8.176;2024-02-15T08:43:13;12.50;88.50
14727;DHT22;7454;51.256;8.176;2024-02-15T08:45:41;12.50;88.40
14727;DHT22;7454;51.256;8.176;2024-02-15T08:48:07;12.50;88.30
14727;DHT22;7454;51.256;8.176;2024-02-15T08:50:33;12.50;88.20
14727;DHT22;7454;51.256;8.176;2024-02-15T08:52:59;12.50;88.30
14727;DHT22;7454;51.256;8.176;2024-02-15T08:55:25;12.60;88.40
14727;DHT22;7454;51.256;8.176;2024-02-15T08:57:52;12.60;88.10
14727;DHT22;7454;51.256;8.176;2024-02-15T09:00:18;12.60;88.10
14727;DHT22;7454;51.256;8.176;2024-02-15T09:02:45;12.60;88.00
14727;DHT22;7454;51.256;8.176;2024-02-15T09:05:11;12.60;87.90
14727;DHT22;7454;51.256;8.176;2024-02-15T09:07:41;12.60;87.70
14727;DHT22;7454;51.256;8.176;2024-02-15T09:10:10;12.60;87.50
14727;DHT22;7454;51.256;8.176;2024-02-15T09:12:37;12.60;87.30
14727;DHT22;7454;51.256;8.176;2024-02-15T09:15:08;12.60;87.10
14727;DHT22;7454;51.256;8.176;2024-02-15T09:17:37;12.60;87.00
14727;DHT22;7454;51.256;8.176;2024-02-15T09:20:09;12.60;87.10
14727;DHT22;7454;51.256;8.176;2024-02-15T09:22:43;12.60;87.30
14727;DHT22;7454;51.256;8.176;2024-02-15T09:25:12;12.70;87.10
14727;DHT22;7454;51.256;8.176;2024-02-15T09:27:39;12.70;86.50
14727;DHT22;7454;51.256;8.176;2024-02-15T09:30:05;12.70;86.20
14727;DHT22;7454;51.256;8.176;2024-02-15T09:32:38;12.70;86.00
14727;DHT22;7454;51.256;8.176;2024-02-15T09:35:04;12.70;85.90
14727;DHT22;7454;51.256;8.176;2024-02-15T09:37:34;12.60;86.00
14727;DHT22;7454;51.256;8.176;2024-02-15T09:40:00;12.60;85.80
14727;DHT22;7454;51.256;8.176;2024-02-15T09:42:31;12.60;85.70
14727;DHT22;7454;51.256;8.176;2024-02-15T09:45:00;12.60;85.80
14727;DHT22;7454;51.256;8.176;2024-02-15T09:47:34;12.60;85.80
14727;DHT22;7454;51.256;8.176;2024-02-15T09:50:02;12.60;85.80
14727;DHT22;7454;51.256;8.176;2024-02-15T09:52:30;12.60;85.80
14727;DHT22;7454;51.256;8.176;2024-02-15T09:54:57;12.60;86.00
14727;DHT22;7454;51.256;8.176;2024-02-15T09:57:24;12.50;85.80
14727;DHT22;7454;51.256;8.176;2024-02-15T09:59:53;12.60;86.10
14727;DHT22;7454;51.256;8.176;2024-02-15T10:02:19;12.60;85.70
14727;DHT22;7454;51.256;8.176;2024-02-15T10:04:45;12.70;85.90
14727;DHT22;7454;51.256;8.176;2024-02-15T10:07:12;12.70;85.90
14727;DHT22;7454;51.256;8.176;2024-02-15T10:09:39;12.70;85.60
14727;DHT22;7454;51.256;8.176;2024-02-15T10:12:08;12.70;85.50
14727;DHT22;7454;51.256;8.176;2024-02-15T10:14:34;12.70;85.50
14727;DHT22;7454;51.256;8.176;2024-02-15T10:17:07;12.70;85.40
14727;DHT22;7454;51.256;8.176;2024-02-15T10:19:37;12.70;85.30
14727;DHT22;7454;51.256;8.176;2024-02-15T10:22:06;12.70;85.30
14727;DHT22;7454;51.256;8.176;2024-02-15T10:24:33;12.70;85.20
14727;DHT22;7454;51.256;8.176;2024-02-15T10:27:02;12.70;85.40
14727;DHT22;7454;51.256;8.176;2024-02-15T10:29:29;12.70;85.30
14727;DHT22;7454;51.256;8.176;2024-02-15T10:31:57;12.70;85.30
14727;DHT22;7454;51.256;8.176;2024-02-15T10:34:24;12.70;85.20
14727;DHT22;7454;51.256;8.176;2024-02-15T10:36:53;12.70;85.20
14727;DHT22;7454;51.256;8.176;2024-02-15T10:39:37;12.70;85.20
14727;DHT22;7454;51.256;8.176;2024-02-15T10:42:03;12.80;85.20
14727;DHT22;7454;51.256;8.176;2024-02-15T10:44:32;12.80;85.50
14727;DHT22;7454;51.256;8.176;2024-02-15T10:46:59;12.90;85.50
14727;DHT22;7454;51.256;8.176;2024-02-15T10:49:26;12.90;85.20
14727;DHT22;7454;51.256;8.176;2024-02-15T10:51:56;12.90;85.20
14727;DHT22;7454;51.256;8.176;2024-02-15T10:55:09;12.90;84.90
14727;DHT22;7454;51.256;8.176;2024-02-15T10:57:22;12.90;84.70
14727;DHT22;7454;51.256;8.176;2024-02-15T10:59:57;12.90;84.70
14727;DHT22;7454;51.256;8.176;2024-02-15T11:04:55;12.90;84.80
14727;DHT22;7454;51.256;8.176;2024-02-15T11:07:24;12.90;84.60
14727;DHT22;7454;51.256;8.176;2024-02-15T11:09:53;12.90;84.60
14727;DHT22;7454;51.256;8.176;2024-02-15T11:12:22;12.90;84.40
14727;DHT22;7454;51.256;8.176;2024-02-15T11:14:48;12.80;84.10
14727;DHT22;7454;51.256;8.176;2024-02-15T11:20:10;12.80;84.30
14727;DHT22;7454;51.256;8.176;2024-02-15T11:23:02;12.80;84.30
14727;DHT22;7454;51.256;8.176;2024-02-15T11:25:35;12.80;84.30
14727;DHT22;7454;51.256;8.176;2024-02-15T11:30:46;12.80;84.40
14727;DHT22;7454;51.256;8.176;2024-02-15T11:36:06;12.80;84.40
14727;DHT22;7454;51.256;8.176;2024-02-15T11:38:37;12.80;84.20
14727;DHT22;7454;51.256;8.176;2024-02-15T11:41:06;12.80;84.20
14727;DHT22;7454;51.256;8.176;2024-02-15T11:46:09;12.80;83.90
14727;DHT22;7454;51.256;8.176;2024-02-15T11:48:37;12.80;83.70
14727;DHT22;7454;51.256;8.176;2024-02-15T11:51:05;12.80;83.80
14727;DHT22;7454;51.256;8.176;2024-02-15T11:53:32;12.80;83.70
14727;DHT22;7454;51.256;8.176;2024-02-15T11:56:01;12.80;83.60
14727;DHT22;7454;51.256;8.176;2024-02-15T11:58:33;12.80;83.70
14727;DHT22;7454;51.256;8.176;2024-02-15T12:01:17;12.80;83.60
14727;DHT22;7454;51.256;8.176;2024-02-15T12:04:02;12.80;83.60
14727;DHT22;7454;51.256;8.176;2024-02-15T12:06:47;12.90;83.60
14727;DHT22;7454;51.256;8.176;2024-02-15T12:09:31;12.90;83.50
14727;DHT22;7454;51.256;8.176;2024-02-15T12:12:23;12.90;83.50
14727;DHT22;7454;51.256;8.176;2024-02-15T12:15:07;13.00;83.40
14727;DHT22;7454;51.256;8.176;2024-02-15T12:18:15;13.00;83.40
14727;DHT22;7454;51.256;8.176;2024-02-15T12:21:02;13.00;83.40
14727;DHT22;7454;51.256;8.176;2024-02-15T12:23:29;13.10;83.50
14727;DHT22;7454;51.256;8.176;2024-02-15T12:25:59;13.10;83.30
14727;DHT22;7454;51.256;8.176;2024-02-15T12:28:25;13.10;83.20
14727;DHT22;7454;51.256;8.176;2024-02-15T12:30:54;13.10;83.20
14727;DHT22;7454;51.256;8.176;2024-02-15T12:33:22;13.20;83.00
14727;DHT22;7454;51.256;8.176;2024-02-15T12:35:48;13.20;83.20
14727;DHT22;7454;51.256;8.176;2024-02-15T12:38:15;13.20;83.20
14727;DHT22;7454;51.256;8.176;2024-02-15T12:40:42;13.30;83.20
14727;DHT22;7454;51.256;8.176;2024-02-15T12:43:08;13.30;83.40
14727;DHT22;7454;51.256;8.176;2024-02-15T12:45:38;13.30;83.20
14727;DHT22;7454;51.256;8.176;2024-02-15T12:48:05;13.40;83.10
14727;DHT22;7454;51.256;8.176;2024-02-15T12:50:31;13.30;83.00
14727;DHT22;7454;51.256;8.176;2024-02-15T12:52:57;13.40;82.90
14727;DHT22;7454;51.256;8.176;2024-02-15T12:55:28;13.30;83.00
14727;DHT22;7454;51.256;8.176;2024-02-15T12:57:57;13.40;83.30
14727;DHT22;7454;51.256;8.176;2024-02-15T13:00:26;13.40;83.20
14727;DHT22;7454;51.256;8.176;2024-02-15T13:02:57;13.50;83.20
14727;DHT22;7454;51.256;8.176;2024-02-15T13:05:24;13.50;83.20
14727;DHT22;7454;51.256;8.176;2024-02-15T13:07:52;13.50;83.30
14727;DHT22;7454;51.256;8.176;2024-02-15T13:10:20;13.50;83.10
14727;DHT22;7454;51.256;8.176;2024-02-15T13:12:47;13.50;83.10
14727;DHT22;7454;51.256;8.176;2024-02-15T13:15:13;13.50;83.10
14727;DHT22;7454;51.256;8.176;2024-02-15T13:17:43;13.60;83.00
14727;DHT22;7454;51.256;8.176;2024-02-15T13:20:11;13.50;82.90
14727;DHT22;7454;51.256;8.176;2024-02-15T13:22:39;13.50;82.70
14727;DHT22;7454;51.256;8.176;2024-02-15T13:25:06;13.50;82.70
14727;DHT22;7454;51.256;8.176;2024-02-15T13:27:35;13.50;82.70
14727;DHT22;7454;51.256;8.176;2024-02-15T13:30:06;13.50;82.60
14727;DHT22;7454;51.256;8.176;2024-02-15T13:32:36;13.50;82.50
14727;DHT22;7454;51.256;8.176;2024-02-15T13:35:06;13.50;82.50
14727;DHT22;7454;51.256;8.176;2024-02-15T13:37:42;13.50;82.50
14727;DHT22;7454;51.256;8.176;2024-02-15T13:40:11;13.40;82.30
14727;DHT22;7454;51.256;8.176;2024-02-15T13:42:46;13.40;82.30
14727;DHT22;7454;51.256;8.176;2024-02-15T13:45:21;13.40;82.20
14727;DHT22;7454;51.256;8.176;2024-02-15T13:47:55;13.40;82.30
14727;DHT22;7454;51.256;8.176;2024-02-15T13:50:22;13.40;82.30
14727;DHT22;7454;51.256;8.176;2024-02-15T13:52:48;13.30;82.10
14727;DHT22;7454;51.256;8.176;2024-02-15T13:55:15;13.30;82.20
14727;DHT22;7454;51.256;8.176;2024-02-15T13:57:43;13.40;82.30
14727;DHT22;7454;51.256;8.176;2024-02-15T14:00:10;13.40;82.20
14727;DHT22;7454;51.256;8.176;2024-02-15T14:02:40;13.30;82.10
14727;DHT22;7454;51.256;8.176;2024-02-15T14:05:07;13.30;82.10
14727;DHT22;7454;51.256;8.176;2024-02-15T14:07:34;13.30;82.20
14727;DHT22;7454;51.256;8.176;2024-02-15T14:10:04;13.40;82.40
14727;DHT22;7454;51.256;8.176;2024-02-15T14:12:30;13.30;82.30
14727;DHT22;7454;51.256;8.176;2024-02-15T14:14:56;13.30;82.40
14727;DHT22;7454;51.256;8.176;2024-02-15T14:17:22;13.30;82.30
14727;DHT22;7454;51.256;8.176;2024-02-15T14:19:48;13.30;82.20
14727;DHT22;7454;51.256;8.176;2024-02-15T14:22:14;13.30;82.30
14727;DHT22;7454;51.256;8.176;2024-02-15T14:24:41;13.30;82.40
14727;DHT22;7454;51.256;8.176;2024-02-15T14:27:09;13.30;82.50
14727;DHT22;7454;51.256;8.176;2024-02-15T14:29:39;13.30;82.60
14727;DHT22;7454;51.256;8.176;2024-02-15T14:32:24;13.30;82.60
14727;DHT22;7454;51.256;8.176;2024-02-15T14:35:32;13.30;82.50
14727;DHT22;7454;51.256;8.176;2024-02-15T14:38:02;13.20;82.30
14727;DHT22;7454;51.256;8.176;2024-02-15T14:40:32;13.20;82.20
14727;DHT22;7454;51.256;8.176;2024-02-15T14:42:58;13.20;82.40
14727;DHT22;7454;51.256;8.176;2024-02-15T14:45:25;13.20;82.30
14727;DHT22;7454;51.256;8.176;2024-02-15T14:47:51;13.20;82.30
14727;DHT22;7454;51.256;8.176;2024-02-15T14:50:17;13.30;82.30
14727;DHT22;7454;51.256;8.176;2024-02-15T14:52:46;13.20;82.20
14727;DHT22;7454;51.256;8.176;2024-02-15T14:55:13;13.20;82.10
14727;DHT22;7454;51.256;8.176;2024-02-15T14:57:39;13.10;82.00
14727;DHT22;7454;51.256;8.176;2024-02-15T15:00:05;13.20;82.20
14727;DHT22;7454;51.256;8.176;2024-02-15T15:02:37;13.10;82.30
14727;DHT22;7454;51.256;8.176;2024-02-15T15:05:03;13.10;82.20
14727;DHT22;7454;51.256;8.176;2024-02-15T15:07:47;13.10;82.40
14727;DHT22;7454;51.256;8.176;2024-02-15T15:10:31;13.10;82.30
14727;DHT22;7454;51.256;8.176;2024-02-15T15:13:16;13.00;82.40
14727;DHT22;7454;51.256;8.176;2024-02-15T15:15:43;13.00;82.50
14727;DHT22;7454;51.256;8.176;2024-02-15T15:18:08;13.00;82.40
14727;DHT22;7454;51.256;8.176;2024-02-15T15:20:34;13.00;82.40
14727;DHT22;7454;51.256;8.176;2024-02-15T15:23:01;12.90;82.40
14727;DHT22;7454;51.256;8.176;2024-02-15T15:25:27;12.90;82.40
14727;DHT22;7454;51.256;8.176;2024-02-15T15:27:54;12.90;82.40
14727;DHT22;7454;51.256;8.176;2024-02-15T15:30:21;12.90;82.40
14727;DHT22;7454;51.256;8.176;2024-02-15T15:32:47;12.90;82.50
14727;DHT22;7454;51.256;8.176;2024-02-15T15:35:14;12.80;82.50
14727;DHT22;7454;51.256;8.176;2024-02-15T15:37:39;12.80;82.50
14727;DHT22;7454;51.256;8.176;2024-02-15T15:40:05;12.80;82.60
14727;DHT22;7454;51.256;8.176;2024-02-15T15:42:35;12.80;82.50
14727;DHT22;7454;51.256;8.176;2024-02-15T15:45:01;12.80;82.40
14727;DHT22;7454;51.256;8.176;2024-02-15T15:47:27;12.70;82.30
14727;DHT22;7454;51.256;8.176;2024-02-15T15:49:53;12.70;82.40
14727;DHT22;7454;51.256;8.176;2024-02-15T15:52:24;12.70;82.50
14727;DHT22;7454;51.256;8.176;2024-02-15T15:54:50;12.70;82.50
14727;DHT22;7454;51.256;8.176;2024-02-15T15:57:16;12.70;82.50
14727;DHT22;7454;51.256;8.176;2024-02-15T15:59:41;12.60;82.40
14727;DHT22;7454;51.256;8.176;2024-02-15T16:02:09;12.70;82.50
14727;DHT22;7454;51.256;8.176;2024-02-15T16:04:35;12.60;82.50
14727;DHT22;7454;51.256;8.176;2024-02-15T16:07:08;12.60;82.50